sensor_id;sensor_type;location;lat;lon;timestamp;pressure;altitude;pressure_sealevel;temperature;humidity
59971;BME280;45825;45.434;9.116;2023-05-29T00:00:22;100115.25;;;22.23;56.53
59971;BME280;45825;45.434;9.116;2023-05-29T00:02:48;100121.44;;;22.24;56.09
59971;BME280;45825;45.434;9.116;2023-05-29T00:05:14;100118.28;;;22.28;56.25
59971;BME280;45825;45.434;9.116;2023-05-29T00:07:40;100119.75;;;22.31;54.92
59971;BME280;45825;45.434;9.116;2023-05-29T00:10:07;100123.63;;;22.28;54.65
59971;BME280;45825;45.434;9.116;2023-05-29T00:12:33;100126.97;;;22.22;54.34
59971;BME280;45825;45.434;9.116;2023-05-29T00:14:59;100117.56;;;22.26;53.28
59971;BME280;45825;45.434;9.116;2023-05-29T00:17:25;100114.72;;;22.19;53.31
59971;BME280;45825;45.434;9.116;2023-05-29T00:19:50;100116.09;;;22.24;53.22
59971;BME280;45825;45.434;9.116;2023-05-29T00:22:16;100107.19;;;22.07;53.22
59971;BME280;45825;45.434;9.116;2023-05-29T00:24:41;100109.19;;;22.13;53.55
59971;BME280;45825;45.434;9.116;2023-05-29T00:27:06;100107.69;;;22.10;53.64
59971;BME280;45825;45.434;9.116;2023-05-29T00:29:34;100103.63;;;21.98;53.43
59971;BME280;45825;45.434;9.116;2023-05-29T00:31:59;100105.16;;;22.00;53.93
59971;BME280;45825;45.434;9.116;2023-05-29T00:34:24;100098.44;;;22.04;53.48
59971;BME280;45825;45.434;9.116;2023-05-29T00:36:50;100099.81;;;22.09;53.70
59971;BME280;45825;45.434;9.116;2023-05-29T00:39:15;100085.75;;;22.07;52.87
59971;BME280;45825;45.434;9.116;2023-05-29T00:41:40;100094.81;;;22.05;53.56
59971;BME280;45825;45.434;9.116;2023-05-29T00:44:06;100089.09;;;22.00;53.91
59971;BME280;45825;45.434;9.116;2023-05-29T00:46:32;100086.56;;;21.99;53.66
59971;BME280;45825;45.434;9.116;2023-05-29T00:49:01;100088.22;;;22.00;53.82
59971;BME280;45825;45.434;9.116;2023-05-29T00:51:27;100094.44;;;22.00;54.34
59971;BME280;45825;45.434;9.116;2023-05-29T00:53:53;100092.44;;;22.02;54.09
59971;BME280;45825;45.434;9.116;2023-05-29T00:56:19;100093.94;;;21.97;54.00
59971;BME280;45825;45.434;9.116;2023-05-29T00:58:47;100085.22;;;21.95;54.26
59971;BME280;45825;45.434;9.116;2023-05-29T01:01:13;100085.53;;;21.83;54.76
59971;BME280;45825;45.434;9.116;2023-05-29T01:03:40;100092.72;;;21.83;54.64
59971;BME280;45825;45.434;9.116;2023-05-29T01:06:06;100092.91;;;21.81;54.81
59971;BME280;45825;45.434;9.116;2023-05-29T01:08:32;100088.19;;;21.75;55.56
59971;BME280;45825;45.434;9.116;2023-05-29T01:11:04;100080.19;;;21.83;55.21
59971;BME280;45825;45.434;9.116;2023-05-29T01:13:34;100088.72;;;21.87;54.88
59971;BME280;45825;45.434;9.116;2023-05-29T01:16:08;100079.34;;;21.91;54.95
59971;BME280;45825;45.434;9.116;2023-05-29T01:18:41;100081.53;;;21.96;56.01
59971;BME280;45825;45.434;9.116;2023-05-29T01:21:29;100078.19;;;21.94;56.15
59971;BME280;45825;45.434;9.116;2023-05-29T01:26:46;100074.84;;;21.91;56.18
59971;BME280;45825;45.434;9.116;2023-05-29T01:29:15;100073.00;;;21.84;56.97
59971;BME280;45825;45.434;9.116;2023-05-29T01:31:43;100078.53;;;21.90;57.03
59971;BME280;45825;45.434;9.116;2023-05-29T01:34:10;100080.03;;;21.93;56.77
59971;BME280;45825;45.434;9.116;2023-05-29T01:36:36;100082.56;;;22.03;56.77
59971;BME280;45825;45.434;9.116;2023-05-29T01:39:01;100074.69;;;22.01;57.14
59971;BME280;45825;45.434;9.116;2023-05-29T01:41:28;100084.88;;;21.98;56.85
59971;BME280;45825;45.434;9.116;2023-05-29T01:43:56;100086.56;;;21.99;57.28
59971;BME280;45825;45.434;9.116;2023-05-29T01:46:23;100084.06;;;21.97;57.37
59971;BME280;45825;45.434;9.116;2023-05-29T01:48:50;100078.03;;;21.95;57.39
59971;BME280;45825;45.434;9.116;2023-05-29T01:51:16;100079.19;;;21.93;57.88
59971;BME280;45825;45.434;9.116;2023-05-29T01:53:42;100078.34;;;21.92;57.93
59971;BME280;45825;45.434;9.116;2023-05-29T01:56:08;100081.69;;;21.94;58.11
59971;BME280;45825;45.434;9.116;2023-05-29T01:58:35;100083.00;;;21.82;58.37
59971;BME280;45825;45.434;9.116;2023-05-29T02:01:04;100085.16;;;21.78;58.53
59971;BME280;45825;45.434;9.116;2023-05-29T02:03:31;100073.78;;;21.76;58.81
59971;BME280;45825;45.434;9.116;2023-05-29T02:05:57;100089.53;;;21.79;58.77
59971;BME280;45825;45.434;9.116;2023-05-29T02:08:22;100081.81;;;21.76;59.09
59971;BME280;45825;45.434;9.116;2023-05-29T02:10:47;100082.31;;;21.71;59.11
59971;BME280;45825;45.434;9.116;2023-05-29T02:13:13;100079.47;;;21.73;59.38
59971;BME280;45825;45.434;9.116;2023-05-29T02:15:38;100088.38;;;21.82;59.55
59971;BME280;45825;45.434;9.116;2023-05-29T02:18:03;100073.47;;;21.79;59.09
59971;BME280;45825;45.434;9.116;2023-05-29T02:20:29;100083.97;;;21.72;59.45
59971;BME280;45825;45.434;9.116;2023-05-29T02:22:54;100076.94;;;21.71;59.64
59971;BME280;45825;45.434;9.116;2023-05-29T02:25:19;100088.66;;;21.70;59.92
59971;BME280;45825;45.434;9.116;2023-05-29T02:27:45;100087.66;;;21.71;60.47
59971;BME280;45825;45.434;9.116;2023-05-29T02:30:10;100082.63;;;21.68;60.64
59971;BME280;45825;45.434;9.116;2023-05-29T02:32:36;100085.63;;;21.65;60.90
59971;BME280;45825;45.434;9.116;2023-05-29T02:35:02;100081.41;;;21.62;61.06
59971;BME280;45825;45.434;9.116;2023-05-29T02:37:27;100082.63;;;21.68;60.67
59971;BME280;45825;45.434;9.116;2023-05-29T02:39:53;100083.63;;;21.67;60.83
59971;BME280;45825;45.434;9.116;2023-05-29T02:42:18;100084.09;;;21.62;60.31
59971;BME280;45825;45.434;9.116;2023-05-29T02:44:43;100092.94;;;21.55;60.92
59971;BME280;45825;45.434;9.116;2023-05-29T02:47:09;100087.91;;;21.52;61.00
59971;BME280;45825;45.434;9.116;2023-05-29T02:49:34;100089.06;;;21.49;61.36
59971;BME280;45825;45.434;9.116;2023-05-29T02:51:59;100090.91;;;21.48;61.52
59971;BME280;45825;45.434;9.116;2023-05-29T02:54:25;100089.41;;;21.46;61.79
59971;BME280;45825;45.434;9.116;2023-05-29T02:56:51;100087.41;;;21.48;62.03
59971;BME280;45825;45.434;9.116;2023-05-29T02:59:16;100088.41;;;21.55;61.95
59971;BME280;45825;45.434;9.116;2023-05-29T03:01:42;100090.59;;;21.52;61.91
59971;BME280;45825;45.434;9.116;2023-05-29T03:04:08;100097.56;;;21.44;62.23
59971;BME280;45825;45.434;9.116;2023-05-29T03:06:34;100096.72;;;21.35;62.60
59971;BME280;45825;45.434;9.116;2023-05-29T03:09:02;100095.09;;;21.16;63.59
59971;BME280;45825;45.434;9.116;2023-05-29T03:11:27;100099.44;;;21.17;63.74
59971;BME280;45825;45.434;9.116;2023-05-29T03:13:54;100096.63;;;21.19;64.01
59971;BME280;45825;45.434;9.116;2023-05-29T03:16:19;100098.34;;;21.28;64.15
59971;BME280;45825;45.434;9.116;2023-05-29T03:18:45;100099.69;;;21.32;64.04
59971;BME280;45825;45.434;9.116;2023-05-29T03:21:10;100100.88;;;21.30;64.39
59971;BME280;45825;45.434;9.116;2023-05-29T03:23:35;100094.25;;;21.16;64.94
59971;BME280;45825;45.434;9.116;2023-05-29T03:26:02;100100.19;;;21.01;65.93
59971;BME280;45825;45.434;9.116;2023-05-29T03:28:27;100104.06;;;21.07;66.56
59971;BME280;45825;45.434;9.116;2023-05-29T03:30:53;100103.16;;;20.98;66.95
59971;BME280;45825;45.434;9.116;2023-05-29T03:33:18;100098.22;;;20.85;67.82
59971;BME280;45825;45.434;9.116;2023-05-29T03:35:43;100101.44;;;20.89;67.79
59971;BME280;45825;45.434;9.116;2023-05-29T03:38:09;100101.97;;;20.92;67.82
59971;BME280;45825;45.434;9.116;2023-05-29T03:40:34;100104.09;;;20.89;67.88
59971;BME280;45825;45.434;9.116;2023-05-29T03:42:59;100112.44;;;20.86;68.14
59971;BME280;45825;45.434;9.116;2023-05-29T03:45:24;100104.09;;;20.89;67.59
59971;BME280;45825;45.434;9.116;2023-05-29T03:47:50;100101.44;;;20.89;67.82
59971;BME280;45825;45.434;9.116;2023-05-29T03:50:16;100109.66;;;20.96;67.70
59971;BME280;45825;45.434;9.116;2023-05-29T03:52:42;100103.03;;;21.00;67.62
59971;BME280;45825;45.434;9.116;2023-05-29T03:55:09;100104.91;;;21.07;67.64
59971;BME280;45825;45.434;9.116;2023-05-29T03:57:38;100102.38;;;21.06;67.01
59971;BME280;45825;45.434;9.116;2023-05-29T04:00:08;100105.75;;;21.08;67.31
59971;BME280;45825;45.434;9.116;2023-05-29T04:02:38;100121.34;;;20.94;67.46
59971;BME280;45825;45.434;9.116;2023-05-29T04:05:07;100125.50;;;20.71;68.62
59971;BME280;45825;45.434;9.116;2023-05-29T04:07:35;100135.44;;;20.60;69.07
59971;BME280;45825;45.434;9.116;2023-05-29T04:10:05;100145.22;;;20.51;69.27
59971;BME280;45825;45.434;9.116;2023-05-29T04:12:31;100148.19;;;20.30;69.98
59971;BME280;45825;45.434;9.116;2023-05-29T04:14:57;100150.47;;;20.25;69.93
59971;BME280;45825;45.434;9.116;2023-05-29T04:17:23;100157.31;;;20.09;71.11
59971;BME280;45825;45.434;9.116;2023-05-29T04:19:48;100161.41;;;20.04;71.99
59971;BME280;45825;45.434;9.116;2023-05-29T04:22:14;100170.59;;;20.01;72.57
59971;BME280;45825;45.434;9.116;2023-05-29T04:24:39;100171.44;;;19.92;73.19
59971;BME280;45825;45.434;9.116;2023-05-29T04:27:05;100187.75;;;19.61;75.19
59971;BME280;45825;45.434;9.116;2023-05-29T04:29:30;100190.53;;;19.59;76.07
59971;BME280;45825;45.434;9.116;2023-05-29T04:31:57;100191.22;;;19.61;76.54
59971;BME280;45825;45.434;9.116;2023-05-29T04:34:23;100197.31;;;19.53;77.66
59971;BME280;45825;45.434;9.116;2023-05-29T04:36:48;100200.97;;;19.52;79.39
59971;BME280;45825;45.434;9.116;2023-05-29T04:39:13;100208.28;;;19.50;81.28
59971;BME280;45825;45.434;9.116;2023-05-29T04:41:40;100208.41;;;19.49;84.50
59971;BME280;45825;45.434;9.116;2023-05-29T04:44:06;100208.81;;;19.54;86.53
59971;BME280;45825;45.434;9.116;2023-05-29T04:46:31;100211.53;;;19.34;88.42
59971;BME280;45825;45.434;9.116;2023-05-29T04:48:56;100204.41;;;19.25;93.88
59971;BME280;45825;45.434;9.116;2023-05-29T04:51:22;100218.28;;;19.29;97.55
59971;BME280;45825;45.434;9.116;2023-05-29T04:53:49;100215.59;;;19.38;100.00
59971;BME280;45825;45.434;9.116;2023-05-29T04:56:15;100223.50;;;19.30;100.00
59971;BME280;45825;45.434;9.116;2023-05-29T04:58:41;100219.16;;;19.29;100.00
59971;BME280;45825;45.434;9.116;2023-05-29T05:01:07;100215.59;;;19.38;100.00
59971;BME280;45825;45.434;9.116;2023-05-29T05:03:40;100228.25;;;19.36;100.00
59971;BME280;45825;45.434;9.116;2023-05-29T05:06:05;100228.25;;;19.36;100.00
59971;BME280;45825;45.434;9.116;2023-05-29T05:08:32;100233.84;;;19.43;100.00
59971;BME280;45825;45.434;9.116;2023-05-29T05:11:02;100246.31;;;19.52;100.00
59971;BME280;45825;45.434;9.116;2023-05-29T05:13:27;100241.22;;;19.69;100.00
59971;BME280;45825;45.434;9.116;2023-05-29T05:15:53;100246.97;;;19.74;100.00
59971;BME280;45825;45.434;9.116;2023-05-29T05:18:19;100237.09;;;19.85;100.00
59971;BME280;45825;45.434;9.116;2023-05-29T05:20:45;100240.19;;;19.90;100.00
59971;BME280;45825;45.434;9.116;2023-05-29T05:23:10;100245.78;;;19.87;100.00
59971;BME280;45825;45.434;9.116;2023-05-29T05:25:36;100234.13;;;19.88;100.00
59971;BME280;45825;45.434;9.116;2023-05-29T05:28:02;100248.31;;;19.98;100.00
59971;BME280;45825;45.434;9.116;2023-05-29T05:30:31;100249.97;;;19.99;100.00
59971;BME280;45825;45.434;9.116;2023-05-29T05:32:56;100247.19;;;20.01;100.00
59971;BME280;45825;45.434;9.116;2023-05-29T05:35:22;100248.75;;;19.93;100.00
59971;BME280;45825;45.434;9.116;2023-05-29T05:37:47;100254.53;;;19.89;100.00
59971;BME280;45825;45.434;9.116;2023-05-29T05:40:12;100250.88;;;19.80;100.00
59971;BME280;45825;45.434;9.116;2023-05-29T05:42:38;100253.97;;;19.85;100.00
59971;BME280;45825;45.434;9.116;2023-05-29T05:45:04;100258.31;;;19.86;100.00
59971;BME280;45825;45.434;9.116;2023-05-29T05:47:31;100270.81;;;19.86;100.00
59971;BME280;45825;45.434;9.116;2023-05-29T05:49:56;100263.94;;;19.93;100.00
59971;BME280;45825;45.434;9.116;2023-05-29T05:52:23;100264.50;;;19.96;100.00
59971;BME280;45825;45.434;9.116;2023-05-29T05:54:48;100262.53;;;19.89;100.00
59971;BME280;45825;45.434;9.116;2023-05-29T05:57:13;100260.28;;;19.84;100.00
59971;BME280;45825;45.434;9.116;2023-05-29T05:59:39;100253.16;;;19.75;100.00
59971;BME280;45825;45.434;9.116;2023-05-29T06:02:04;100261.16;;;19.75;100.00
59971;BME280;45825;45.434;9.116;2023-05-29T06:04:29;100264.81;;;19.74;100.00
59971;BME280;45825;45.434;9.116;2023-05-29T06:06:55;100274.63;;;19.73;100.00
59971;BME280;45825;45.434;9.116;2023-05-29T06:09:21;100268.06;;;19.67;100.00
59971;BME280;45825;45.434;9.116;2023-05-29T06:11:46;100274.38;;;19.66;100.00
59971;BME280;45825;45.434;9.116;2023-05-29T06:14:13;100277.44;;;19.72;100.00
59971;BME280;45825;45.434;9.116;2023-05-29T06:16:38;100277.59;;;19.70;100.00
59971;BME280;45825;45.434;9.116;2023-05-29T06:19:03;100279.00;;;19.74;100.00
59971;BME280;45825;45.434;9.116;2023-05-29T06:21:29;100282.50;;;19.75;100.00
59971;BME280;45825;45.434;9.116;2023-05-29T06:23:54;100273.81;;;19.73;100.00
59971;BME280;45825;45.434;9.116;2023-05-29T06:26:20;100269.31;;;19.73;100.00
59971;BME280;45825;45.434;9.116;2023-05-29T06:28:46;100264.81;;;19.74;100.00
59971;BME280;45825;45.434;9.116;2023-05-29T06:31:11;100274.22;;;19.78;100.00
59971;BME280;45825;45.434;9.116;2023-05-29T06:33:37;100268.00;;;19.77;100.00
59971;BME280;45825;45.434;9.116;2023-05-29T06:36:03;100267.19;;;19.77;100.00
59971;BME280;45825;45.434;9.116;2023-05-29T06:38:28;100264.25;;;19.70;100.00
59971;BME280;45825;45.434;9.116;2023-05-29T06:40:53;100264.91;;;19.82;100.00
59971;BME280;45825;45.434;9.116;2023-05-29T06:43:18;100271.06;;;19.92;100.00
59971;BME280;45825;45.434;9.116;2023-05-29T06:45:44;100264.03;;;19.91;100.00
59971;BME280;45825;45.434;9.116;2023-05-29T06:48:09;100262.09;;;19.83;100.00
59971;BME280;45825;45.434;9.116;2023-05-29T06:50:35;100268.56;;;19.91;100.00
59971;BME280;45825;45.434;9.116;2023-05-29T06:53:00;100268.09;;;20.05;100.00
59971;BME280;45825;45.434;9.116;2023-05-29T06:55:25;100272.00;;;20.11;100.00
59971;BME280;45825;45.434;9.116;2023-05-29T06:57:51;100271.13;;;20.20;100.00
59971;BME280;45825;45.434;9.116;2023-05-29T07:00:17;100272.91;;;20.30;100.00
59971;BME280;45825;45.434;9.116;2023-05-29T07:02:42;100275.38;;;20.41;100.00
59971;BME280;45825;45.434;9.116;2023-05-29T07:05:08;100276.75;;;20.45;100.00
59971;BME280;45825;45.434;9.116;2023-05-29T07:07:33;100286.75;;;20.43;100.00
59971;BME280;45825;45.434;9.116;2023-05-29T07:09:58;100288.69;;;20.51;100.00
59971;BME280;45825;45.434;9.116;2023-05-29T07:12:24;100287.34;;;20.65;100.00
59971;BME280;45825;45.434;9.116;2023-05-29T07:14:49;100288.25;;;20.74;100.00
59971;BME280;45825;45.434;9.116;2023-05-29T07:17:15;100289.91;;;20.85;100.00
59971;BME280;45825;45.434;9.116;2023-05-29T07:19:40;100298.84;;;20.93;100.00
59971;BME280;45825;45.434;9.116;2023-05-29T07:22:06;100296.34;;;20.92;100.00
59971;BME280;45825;45.434;9.116;2023-05-29T07:24:31;100300.06;;;20.99;100.00
59971;BME280;45825;45.434;9.116;2023-05-29T07:26:57;100303.97;;;21.05;100.00
59971;BME280;45825;45.434;9.116;2023-05-29T07:29:22;100311.06;;;21.14;100.00
59971;BME280;45825;45.434;9.116;2023-05-29T07:31:51;100303.94;;;21.23;100.00
59971;BME280;45825;45.434;9.116;2023-05-29T07:34:16;100302.75;;;21.35;100.00
59971;BME280;45825;45.434;9.116;2023-05-29T07:39:25;100302.34;;;21.30;100.00
59971;BME280;45825;45.434;9.116;2023-05-29T07:41:50;100311.53;;;21.46;100.00
59971;BME280;45825;45.434;9.116;2023-05-29T07:44:15;100307.22;;;21.53;100.00
59971;BME280;45825;45.434;9.116;2023-05-29T07:46:40;100322.34;;;21.62;100.00
59971;BME280;45825;45.434;9.116;2023-05-29T07:49:06;100310.59;;;21.82;100.00
59971;BME280;45825;45.434;9.116;2023-05-29T07:51:31;100311.31;;;21.84;100.00
59971;BME280;45825;45.434;9.116;2023-05-29T07:53:57;100314.81;;;21.84;100.00
59971;BME280;45825;45.434;9.116;2023-05-29T07:56:22;100313.34;;;21.90;100.00
59971;BME280;45825;45.434;9.116;2023-05-29T07:58:47;100314.59;;;22.04;100.00
59971;BME280;45825;45.434;9.116;2023-05-29T08:01:13;100306.91;;;22.09;100.00
59971;BME280;45825;45.434;9.116;2023-05-29T08:03:38;100306.16;;;22.25;100.00
59971;BME280;45825;45.434;9.116;2023-05-29T08:06:07;100306.75;;;22.11;97.56
59971;BME280;45825;45.434;9.116;2023-05-29T08:08:32;100312.38;;;22.26;98.08
59971;BME280;45825;45.434;9.116;2023-05-29T08:10:57;100314.59;;;22.39;98.11
59971;BME280;45825;45.434;9.116;2023-05-29T08:13:23;100300.94;;;22.58;94.78
59971;BME280;45825;45.434;9.116;2023-05-29T08:15:48;100304.69;;;22.74;93.16
59971;BME280;45825;45.434;9.116;2023-05-29T08:18:13;100294.97;;;22.89;92.32
59971;BME280;45825;45.434;9.116;2023-05-29T08:20:39;100298.69;;;23.05;90.86
59971;BME280;45825;45.434;9.116;2023-05-29T08:23:05;100294.50;;;23.11;87.06
59971;BME280;45825;45.434;9.116;2023-05-29T08:25:30;100290.63;;;23.13;83.51
59971;BME280;45825;45.434;9.116;2023-05-29T08:27:55;100292.31;;;23.06;82.02
59971;BME280;45825;45.434;9.116;2023-05-29T08:30:21;100297.19;;;23.11;82.28
59971;BME280;45825;45.434;9.116;2023-05-29T08:32:46;100294.81;;;23.08;80.46
59971;BME280;45825;45.434;9.116;2023-05-29T08:35:12;100294.22;;;23.30;79.95
59971;BME280;45825;45.434;9.116;2023-05-29T08:37:37;100291.66;;;23.46;78.61
59971;BME280;45825;45.434;9.116;2023-05-29T08:40:03;100297.03;;;23.46;78.14
59971;BME280;45825;45.434;9.116;2023-05-29T08:42:36;100293.53;;;23.53;76.42
59971;BME280;45825;45.434;9.116;2023-05-29T08:45:06;100293.34;;;23.63;76.56
59971;BME280;45825;45.434;9.116;2023-05-29T08:47:33;100289.78;;;23.71;75.25
59971;BME280;45825;45.434;9.116;2023-05-29T08:50:00;100299.03;;;23.68;73.26
59971;BME280;45825;45.434;9.116;2023-05-29T08:52:26;100302.41;;;23.70;72.03
59971;BME280;45825;45.434;9.116;2023-05-29T08:54:53;100297.84;;;23.71;72.46
59971;BME280;45825;45.434;9.116;2023-05-29T08:57:19;100294.50;;;23.69;69.31
59971;BME280;45825;45.434;9.116;2023-05-29T08:59:46;100301.03;;;23.75;70.82
59971;BME280;45825;45.434;9.116;2023-05-29T09:02:14;100291.09;;;23.83;70.08
59971;BME280;45825;45.434;9.116;2023-05-29T09:04:43;100300.00;;;23.92;69.87
59971;BME280;45825;45.434;9.116;2023-05-29T09:07:18;100295.09;;;24.04;67.76
59971;BME280;45825;45.434;9.116;2023-05-29T09:09:45;100291.25;;;24.07;68.44
59971;BME280;45825;45.434;9.116;2023-05-29T09:12:10;100291.34;;;24.22;66.64
59971;BME280;45825;45.434;9.116;2023-05-29T09:14:40;100293.81;;;24.32;65.69
59971;BME280;45825;45.434;9.116;2023-05-29T09:17:06;100295.84;;;24.30;65.51
59971;BME280;45825;45.434;9.116;2023-05-29T09:19:33;100297.19;;;24.34;62.90
59971;BME280;45825;45.434;9.116;2023-05-29T09:22:01;100294.28;;;23.95;60.91
59971;BME280;45825;45.434;9.116;2023-05-29T09:24:27;100299.00;;;23.77;63.05
59971;BME280;45825;45.434;9.116;2023-05-29T09:26:53;100291.59;;;23.87;63.13
59971;BME280;45825;45.434;9.116;2023-05-29T09:29:18;100294.75;;;23.99;61.12
59971;BME280;45825;45.434;9.116;2023-05-29T09:31:47;100294.47;;;23.85;60.87
59971;BME280;45825;45.434;9.116;2023-05-29T09:34:12;100290.56;;;23.96;61.38
59971;BME280;45825;45.434;9.116;2023-05-29T09:36:38;100291.22;;;23.98;60.46
59971;BME280;45825;45.434;9.116;2023-05-29T09:39:03;100284.69;;;23.93;61.32
59971;BME280;45825;45.434;9.116;2023-05-29T09:41:29;100284.50;;;24.11;61.46
59971;BME280;45825;45.434;9.116;2023-05-29T09:43:56;100281.59;;;24.29;61.58
59971;BME280;45825;45.434;9.116;2023-05-29T09:46:21;100287.00;;;24.52;60.92
59971;BME280;45825;45.434;9.116;2023-05-29T09:48:48;100291.38;;;24.53;58.55
59971;BME280;45825;45.434;9.116;2023-05-29T09:51:23;100291.06;;;24.48;60.48
59971;BME280;45825;45.434;9.116;2023-05-29T09:53:49;100288.09;;;24.66;58.01
59971;BME280;45825;45.434;9.116;2023-05-29T09:56:23;100292.91;;;24.88;56.63
59971;BME280;45825;45.434;9.116;2023-05-29T09:58:51;100284.63;;;25.13;57.70
59971;BME280;45825;45.434;9.116;2023-05-29T10:01:18;100285.75;;;25.18;55.94
59971;BME280;45825;45.434;9.116;2023-05-29T10:03:44;100281.13;;;25.27;55.80
59971;BME280;45825;45.434;9.116;2023-05-29T10:06:11;100281.97;;;25.28;54.82
59971;BME280;45825;45.434;9.116;2023-05-29T10:08:45;100279.03;;;25.14;55.95
59971;BME280;45825;45.434;9.116;2023-05-29T10:11:14;100278.41;;;25.12;55.19
59971;BME280;45825;45.434;9.116;2023-05-29T10:13:45;100280.75;;;25.15;54.67
59971;BME280;45825;45.434;9.116;2023-05-29T10:16:15;100277.75;;;25.10;55.68
59971;BME280;45825;45.434;9.116;2023-05-29T10:18:44;100276.13;;;25.01;57.01
59971;BME280;45825;45.434;9.116;2023-05-29T10:21:14;100279.94;;;25.06;57.38
59971;BME280;45825;45.434;9.116;2023-05-29T10:23:44;100278.75;;;25.32;54.85
59971;BME280;45825;45.434;9.116;2023-05-29T10:26:21;100273.53;;;25.54;53.66
59971;BME280;45825;45.434;9.116;2023-05-29T10:29:17;100269.16;;;25.68;54.21
59971;BME280;45825;45.434;9.116;2023-05-29T10:34:43;100265.25;;;25.86;53.00
59971;BME280;45825;45.434;9.116;2023-05-29T10:37:33;100260.16;;;25.91;55.14
59971;BME280;45825;45.434;9.116;2023-05-29T10:40:08;100260.44;;;25.81;55.21
59971;BME280;45825;45.434;9.116;2023-05-29T10:42:42;100257.91;;;26.09;53.67
59971;BME280;45825;45.434;9.116;2023-05-29T10:45:08;100249.38;;;26.21;50.77
59971;BME280;45825;45.434;9.116;2023-05-29T10:47:34;100247.88;;;26.18;50.74
59971;BME280;45825;45.434;9.116;2023-05-29T10:50:00;100252.09;;;25.91;50.47
59971;BME280;45825;45.434;9.116;2023-05-29T10:52:30;100251.88;;;25.92;50.32
59971;BME280;45825;45.434;9.116;2023-05-29T10:54:56;100251.78;;;26.01;51.94
59971;BME280;45825;45.434;9.116;2023-05-29T10:57:22;100247.97;;;26.25;52.35
59971;BME280;45825;45.434;9.116;2023-05-29T10:59:57;100238.94;;;26.33;49.85
59971;BME280;45825;45.434;9.116;2023-05-29T11:02:22;100243.22;;;26.64;51.49
59971;BME280;45825;45.434;9.116;2023-05-29T11:05:37;100237.06;;;26.92;51.52
59971;BME280;45825;45.434;9.116;2023-05-29T11:07:57;100242.94;;;27.24;50.43
59971;BME280;45825;45.434;9.116;2023-05-29T11:10:55;100243.34;;;27.50;50.44
59971;BME280;45825;45.434;9.116;2023-05-29T11:13:25;100235.44;;;27.48;47.05
59971;BME280;45825;45.434;9.116;2023-05-29T11:16:19;100231.44;;;27.72;47.37
59971;BME280;45825;45.434;9.116;2023-05-29T11:18:46;100224.97;;;27.67;46.41
59971;BME280;45825;45.434;9.116;2023-05-29T11:24:21;100219.31;;;27.97;47.75
59971;BME280;45825;45.434;9.116;2023-05-29T11:26:48;100221.91;;;28.19;45.90
59971;BME280;45825;45.434;9.116;2023-05-29T11:29:13;100209.06;;;28.34;46.78
59971;BME280;45825;45.434;9.116;2023-05-29T11:31:40;100202.41;;;28.37;44.75
59971;BME280;45825;45.434;9.116;2023-05-29T11:34:09;100198.81;;;28.23;44.27
59971;BME280;45825;45.434;9.116;2023-05-29T11:36:34;100205.34;;;28.49;44.90
59971;BME280;45825;45.434;9.116;2023-05-29T11:39:01;100195.38;;;28.56;45.62
59971;BME280;45825;45.434;9.116;2023-05-29T11:41:28;100197.06;;;28.57;45.73
59971;BME280;45825;45.434;9.116;2023-05-29T11:44:00;100185.97;;;28.32;46.32
59971;BME280;45825;45.434;9.116;2023-05-29T11:46:27;100193.91;;;27.91;45.82
59971;BME280;45825;45.434;9.116;2023-05-29T11:48:56;100193.31;;;27.54;47.60
59971;BME280;45825;45.434;9.116;2023-05-29T11:51:21;100190.66;;;27.32;48.37
59971;BME280;45825;45.434;9.116;2023-05-29T11:53:47;100180.59;;;27.19;46.49
59971;BME280;45825;45.434;9.116;2023-05-29T11:56:13;100181.69;;;26.96;47.66
59971;BME280;45825;45.434;9.116;2023-05-29T11:58:40;100186.94;;;26.83;48.57
59971;BME280;45825;45.434;9.116;2023-05-29T12:01:06;100179.44;;;27.00;46.96
59971;BME280;45825;45.434;9.116;2023-05-29T12:03:42;100174.41;;;27.25;47.23
59971;BME280;45825;45.434;9.116;2023-05-29T12:06:11;100161.06;;;27.52;49.01
59971;BME280;45825;45.434;9.116;2023-05-29T12:08:37;100169.91;;;27.39;47.65
59971;BME280;45825;45.434;9.116;2023-05-29T12:11:03;100170.19;;;27.44;47.10
59971;BME280;45825;45.434;9.116;2023-05-29T12:13:29;100166.63;;;27.79;47.19
59971;BME280;45825;45.434;9.116;2023-05-29T12:15:56;100161.13;;;28.08;45.48
59971;BME280;45825;45.434;9.116;2023-05-29T12:18:22;100158.91;;;28.32;45.18
59971;BME280;45825;45.434;9.116;2023-05-29T12:20:48;100161.97;;;28.15;46.60
59971;BME280;45825;45.434;9.116;2023-05-29T12:23:13;100158.16;;;27.96;47.65
59971;BME280;45825;45.434;9.116;2023-05-29T12:25:39;100151.53;;;28.05;47.85
59971;BME280;45825;45.434;9.116;2023-05-29T12:28:05;100157.69;;;28.34;45.71
59971;BME280;45825;45.434;9.116;2023-05-29T12:30:31;100143.56;;;28.52;43.61
59971;BME280;45825;45.434;9.116;2023-05-29T12:32:56;100146.81;;;28.21;43.22
59971;BME280;45825;45.434;9.116;2023-05-29T12:35:24;100141.16;;;28.02;44.23
59971;BME280;45825;45.434;9.116;2023-05-29T12:38:00;100143.53;;;28.39;43.70
59971;BME280;45825;45.434;9.116;2023-05-29T12:40:27;100142.91;;;28.50;42.92
59971;BME280;45825;45.434;9.116;2023-05-29T12:42:55;100139.38;;;28.36;42.75
59971;BME280;45825;45.434;9.116;2023-05-29T12:45:23;100142.69;;;28.18;44.17
59971;BME280;45825;45.434;9.116;2023-05-29T12:55:23;100135.69;;;27.11;46.30
59971;BME280;45825;45.434;9.116;2023-05-29T12:57:49;100134.06;;;27.17;46.46
59971;BME280;45825;45.434;9.116;2023-05-29T13:00:15;100135.75;;;26.89;45.29
59971;BME280;45825;45.434;9.116;2023-05-29T13:02:40;100133.63;;;26.85;45.71
59971;BME280;45825;45.434;9.116;2023-05-29T13:05:06;100132.31;;;26.81;45.89